Terminal Aerodrome Forecast
Issued by NWS Melbourne, FL

Home | Current Version | Previous Version | Text Only | Print | Product List | Glossary On
Versions: 1 2 3 4 5 6 7 8 9 10 11 12 13 14 15
000
FTUS42 KMLB 261100
TAFVRB
TAF
KVRB 261122Z 2612/2712 32005KT P6SM FEW030
     FM261400 02006KT P6SM BKN035
     FM261800 05007KT P6SM OVC035
     FM270000 03005KT P6SM OVC035
     FM270900 05004KT 5SM BR BKN010=

USA.gov is the U.S. government's official web portal to all federal, state and local government web resources and services.